createdAt,value
2023-01-09T00:01:43.012Z,3.53
2023-01-09T00:04:11.539Z,3.40
2023-01-09T00:06:43.301Z,3.25
2023-01-09T00:09:12.125Z,3.25
2023-01-09T00:11:41.519Z,3.50
2023-01-09T00:14:11.151Z,3.50
2023-01-09T00:16:39.595Z,3.62
2023-01-09T00:19:07.761Z,3.50
2023-01-09T00:21:36.514Z,3.42
2023-01-09T00:24:06.149Z,3.30
2023-01-09T00:26:34.613Z,3.78
2023-01-09T00:29:04.674Z,3.37
2023-01-09T00:31:33.225Z,3.58
2023-01-09T00:34:03.472Z,3.85
2023-01-09T00:36:31.917Z,3.80
2023-01-09T00:39:00.661Z,3.47
2023-01-09T00:41:31.289Z,3.62
2023-01-09T00:44:05.520Z,3.45
2023-01-09T00:46:38.216Z,3.75
2023-01-09T00:49:09.159Z,3.80
2023-01-09T00:51:41.441Z,3.40
2023-01-09T00:54:10.568Z,3.40
2023-01-09T00:56:39.035Z,3.28
2023-01-09T00:59:09.095Z,3.22
2023-01-09T01:01:37.501Z,3.53
2023-01-09T01:04:20.088Z,3.10
2023-01-09T01:07:05.744Z,3.28
2023-01-09T01:09:34.074Z,3.83
2023-01-09T01:12:07.034Z,3.35
2023-01-09T01:14:37.671Z,3.03
2023-01-09T01:17:06.444Z,2.90
2023-01-09T01:19:34.858Z,3.37
2023-01-09T01:22:03.994Z,3.12
2023-01-09T01:24:37.383Z,3.17
2023-01-09T01:27:05.672Z,3.70
2023-01-09T01:29:33.992Z,3.37
2023-01-09T01:32:03.478Z,3.62
2023-01-09T01:34:32.114Z,3.80
2023-01-09T01:37:00.361Z,3.22
2023-01-09T01:39:28.600Z,3.50
2023-01-09T01:41:57.249Z,3.15
2023-01-09T01:45:01.887Z,3.37
2023-01-09T01:47:37.935Z,3.20
2023-01-09T01:50:19.833Z,2.80
2023-01-09T01:52:54.963Z,3.28
2023-01-09T01:55:24.105Z,3.15
2023-01-09T01:57:57.278Z,3.45
2023-01-09T02:00:30.521Z,3.50
2023-01-09T02:03:03.978Z,2.97
2023-01-09T02:05:32.727Z,3.22
2023-01-09T02:08:00.788Z,2.97
2023-01-09T02:10:29.599Z,2.62
2023-01-09T02:12:57.977Z,3.12
2023-01-09T02:15:29.345Z,2.83
2023-01-09T02:18:32.513Z,3.58
2023-01-09T02:21:04.716Z,3.05
2023-01-09T02:24:02.666Z,2.83
2023-01-09T02:26:47.620Z,3.35
2023-01-09T02:30:04.933Z,3.15
2023-01-09T02:32:45.605Z,2.78
2023-01-09T02:35:30.763Z,3.00
2023-01-09T02:38:05.901Z,3.10
2023-01-09T02:40:40.487Z,3.30
2023-01-09T02:43:09.390Z,3.12
2023-01-09T02:45:37.698Z,2.42
2023-01-09T02:48:07.582Z,2.90
2023-01-09T02:50:43.021Z,3.05
2023-01-09T02:53:45.328Z,3.10
2023-01-09T02:56:29.051Z,2.25
2023-01-09T02:59:24.268Z,2.62
2023-01-09T03:02:04.459Z,2.70
2023-01-09T03:04:47.422Z,2.90
2023-01-09T03:07:24.096Z,2.30
2023-01-09T03:09:59.961Z,3.17
2023-01-09T03:12:32.762Z,2.60
2023-01-09T03:15:03.537Z,2.67
2023-01-09T03:17:37.997Z,2.65
2023-01-09T03:20:11.775Z,3.10
2023-01-09T03:22:41.007Z,3.15
2023-01-09T03:25:09.757Z,3.15
2023-01-09T03:27:37.845Z,3.30
2023-01-09T03:30:07.254Z,3.40
2023-01-09T03:32:35.643Z,2.80
2023-01-09T03:35:03.760Z,2.42
2023-01-09T03:37:33.135Z,2.37
2023-01-09T03:40:01.514Z,1.95
2023-01-09T03:42:29.725Z,2.60
2023-01-09T03:44:57.696Z,2.85
2023-01-09T03:47:25.936Z,2.70
2023-01-09T03:49:53.909Z,2.58
2023-01-09T03:52:21.884Z,2.62
2023-01-09T03:54:51.515Z,2.62
2023-01-09T03:57:19.715Z,2.17
2023-01-09T03:59:47.755Z,2.50
2023-01-09T04:02:16.030Z,3.15
2023-01-09T04:04:44.420Z,2.70
2023-01-09T04:07:12.546Z,2.70
2023-01-09T04:09:40.501Z,2.42
2023-01-09T04:12:10.188Z,2.33
2023-01-09T04:14:38.289Z,2.28
2023-01-09T04:17:06.278Z,3.10
2023-01-09T04:19:34.547Z,2.00
2023-01-09T04:22:02.495Z,2.17
2023-01-09T04:24:32.323Z,2.70
2023-01-09T04:27:01.122Z,2.45
2023-01-09T04:29:30.413Z,2.30
2023-01-09T04:31:58.513Z,2.80
2023-01-09T04:34:27.564Z,2.78
2023-01-09T04:36:57.191Z,2.90
2023-01-09T04:39:25.348Z,2.78
2023-01-09T04:41:53.773Z,2.22
2023-01-09T04:44:26.258Z,2.50
2023-01-09T04:46:57.091Z,2.05
2023-01-09T04:49:24.994Z,2.53
2023-01-09T04:51:53.038Z,2.40
2023-01-09T04:54:21.814Z,2.45
2023-01-09T04:56:50.092Z,2.30
2023-01-09T04:59:18.015Z,2.45
2023-01-09T05:01:46.391Z,2.45
2023-01-09T05:04:15.834Z,2.62
2023-01-09T05:06:43.775Z,2.55
2023-01-09T05:09:11.977Z,2.08
2023-01-09T05:11:39.915Z,2.40
2023-01-09T05:14:08.082Z,2.58
2023-01-09T05:16:36.727Z,2.35
2023-01-09T05:19:04.766Z,2.17
2023-01-09T05:21:34.080Z,2.80
2023-01-09T05:24:02.437Z,2.15
2023-01-09T05:26:30.618Z,2.00
2023-01-09T05:28:58.644Z,1.70
2023-01-09T05:31:28.324Z,1.48
2023-01-09T05:33:57.508Z,1.70
2023-01-09T05:36:25.755Z,1.92
2023-01-09T05:38:57.794Z,1.67
2023-01-09T05:41:26.436Z,1.77
2023-01-09T05:43:54.920Z,1.98
2023-01-09T05:46:22.945Z,1.20
2023-01-09T05:48:51.056Z,1.85
2023-01-09T05:51:19.461Z,1.45
2023-01-09T05:53:47.547Z,1.80
2023-01-09T05:56:17.305Z,1.55
2023-01-09T05:58:45.705Z,1.85
2023-01-09T06:01:13.845Z,1.50
2023-01-09T06:03:42.319Z,1.52
2023-01-09T06:06:10.392Z,2.05
2023-01-09T06:08:38.373Z,1.73
2023-01-09T06:11:06.969Z,1.85
2023-01-09T06:13:36.281Z,1.55
2023-01-09T06:16:04.638Z,1.35
2023-01-09T06:18:32.939Z,1.67
2023-01-09T06:21:00.960Z,1.35
2023-01-09T06:23:28.932Z,1.58
2023-01-09T06:25:57.158Z,1.42
2023-01-09T06:28:25.130Z,1.27
2023-01-09T06:30:54.613Z,1.48
2023-01-09T06:33:23.035Z,1.90
2023-01-09T06:35:51.110Z,1.70
2023-01-09T06:38:19.307Z,1.80
2023-01-09T06:40:47.683Z,1.90
2023-01-09T06:43:15.863Z,2.00
2023-01-09T06:45:44.789Z,2.42
2023-01-09T06:48:14.458Z,1.58
2023-01-09T06:50:42.440Z,2.20
2023-01-09T06:53:11.097Z,2.30
2023-01-09T06:55:39.397Z,1.92
2023-01-09T06:58:07.512Z,2.08
2023-01-09T07:00:35.567Z,2.55
2023-01-09T07:03:04.041Z,2.20
2023-01-09T07:05:38.753Z,1.80
2023-01-09T07:08:07.136Z,2.30
2023-01-09T07:10:35.105Z,2.33
2023-01-09T07:13:03.185Z,2.10
2023-01-09T07:15:31.515Z,1.92
2023-01-09T07:17:59.865Z,2.00
2023-01-09T07:20:28.167Z,2.05
2023-01-09T07:22:58.688Z,1.62
2023-01-09T07:25:26.977Z,1.70
2023-01-09T07:27:54.988Z,1.92
2023-01-09T07:30:23.545Z,1.70
2023-01-09T07:32:51.687Z,1.80
2023-01-09T07:35:19.815Z,1.90
2023-01-09T07:37:48.240Z,2.15
2023-01-09T07:40:17.869Z,1.50
2023-01-09T07:42:46.084Z,1.60
2023-01-09T07:45:14.333Z,1.70
2023-01-09T07:47:43.700Z,1.70
2023-01-09T07:50:12.802Z,1.83
2023-01-09T07:52:41.124Z,1.48
2023-01-09T07:55:10.769Z,1.48
2023-01-09T07:57:40.192Z,1.52
2023-01-09T08:00:11.145Z,1.10
2023-01-09T08:02:39.606Z,1.27
2023-01-09T08:05:13.633Z,1.58
2023-01-09T08:07:41.690Z,1.48
2023-01-09T08:10:11.626Z,1.12
2023-01-09T08:12:43.837Z,1.10
2023-01-09T08:15:12.873Z,1.02
2023-01-09T08:17:42.519Z,1.02
2023-01-09T08:20:12.181Z,0.75
2023-01-09T08:22:41.781Z,0.90
2023-01-09T08:25:12.509Z,0.90
2023-01-09T08:27:42.438Z,0.85
2023-01-09T08:30:11.797Z,0.88
2023-01-09T08:32:41.266Z,0.80
2023-01-09T08:35:10.405Z,0.75
2023-01-09T08:37:38.615Z,0.85
2023-01-09T08:40:07.767Z,0.82
2023-01-09T08:42:54.782Z,0.62
2023-01-09T08:45:42.066Z,0.90
2023-01-09T08:48:11.304Z,0.60
2023-01-09T08:50:39.320Z,0.43
2023-01-09T08:53:07.334Z,0.60
2023-01-09T08:55:35.561Z,0.75
2023-01-09T08:58:03.951Z,0.45
2023-01-09T09:00:33.232Z,0.30
2023-01-09T09:03:02.660Z,0.75
2023-01-09T09:05:32.441Z,0.70
2023-01-09T09:08:00.709Z,0.40
2023-01-09T09:10:30.523Z,0.57
2023-01-09T09:12:59.954Z,0.60
2023-01-09T09:15:29.355Z,0.55
2023-01-09T09:18:00.700Z,0.70
2023-01-09T09:20:31.857Z,0.50
2023-01-09T09:23:00.361Z,0.32
2023-01-09T09:25:29.490Z,0.40
2023-01-09T09:27:57.634Z,0.77
2023-01-09T09:30:26.077Z,0.50
2023-01-09T09:32:54.559Z,0.30
2023-01-09T09:35:24.033Z,0.60
2023-01-09T09:37:57.466Z,0.40
2023-01-09T09:40:43.552Z,0.50
2023-01-09T09:43:50.236Z,0.70
2023-01-09T09:46:29.969Z,0.77
2023-01-09T09:49:03.360Z,0.40
2023-01-09T09:51:48.632Z,0.37
2023-01-09T09:54:21.653Z,0.30
2023-01-09T09:56:53.869Z,0.50
2023-01-09T09:59:27.037Z,0.60
2023-01-09T10:02:00.091Z,0.30
2023-01-09T10:04:32.136Z,0.45
2023-01-09T10:07:06.100Z,0.40
2023-01-09T10:09:44.118Z,0.25
2023-01-09T10:12:27.386Z,0.10
2023-01-09T10:14:57.202Z,0.20
2023-01-09T10:17:48.436Z,0.20
2023-01-09T10:20:53.971Z,0.30
2023-01-09T10:23:52.281Z,0.30
2023-01-09T10:26:27.120Z,0.20
2023-01-09T10:29:09.939Z,0.17
2023-01-09T10:31:50.485Z,0.20
2023-01-09T10:34:29.802Z,0.40
2023-01-09T10:37:05.951Z,0.28
2023-01-09T10:39:41.975Z,0.20
2023-01-09T10:42:19.064Z,0.35
2023-01-09T10:44:53.484Z,0.20
2023-01-09T10:47:26.359Z,0.37
2023-01-09T10:49:55.870Z,0.30
2023-01-09T10:52:29.994Z,0.28
2023-01-09T10:55:05.359Z,0.10
2023-01-09T10:57:43.343Z,0.10
2023-01-09T11:00:23.064Z,0.20
2023-01-09T11:02:52.684Z,0.20
2023-01-09T11:05:23.476Z,0.25
2023-01-09T11:07:56.548Z,0.10
2023-01-09T11:10:46.847Z,0.20
2023-01-09T11:13:19.794Z,0.30
2023-01-09T11:15:59.436Z,0.20
2023-01-09T11:18:28.621Z,0.13
2023-01-09T11:21:14.205Z,0.13
2023-01-09T11:23:42.835Z,0.17
2023-01-09T11:26:23.978Z,0.10
2023-01-09T11:29:12.840Z,0.20
2023-01-09T11:31:42.625Z,0.10
2023-01-09T11:34:17.484Z,0.47
2023-01-09T11:36:46.015Z,0.20
2023-01-09T11:39:24.002Z,0.20
2023-01-09T11:41:59.023Z,0.30
2023-01-09T11:44:28.770Z,0.40
2023-01-09T11:46:56.995Z,0.20
2023-01-09T11:49:26.961Z,0.10
2023-01-09T11:52:17.221Z,0.32
2023-01-09T11:54:50.190Z,0.40
2023-01-09T11:57:21.474Z,0.60
2023-01-09T11:59:49.604Z,0.30
2023-01-09T12:02:44.821Z,0.20
2023-01-09T12:05:25.451Z,0.30
2023-01-09T12:08:36.299Z,0.28
2023-01-09T12:11:21.971Z,0.30
2023-01-09T12:14:18.353Z,0.20
2023-01-09T12:16:59.741Z,0.28
2023-01-09T12:19:55.651Z,0.22
2023-01-09T12:22:32.210Z,0.22
2023-01-09T12:25:12.499Z,0.10
2023-01-09T12:27:57.585Z,0.10
2023-01-09T12:30:48.589Z,0.20
2023-01-09T12:33:33.257Z,0.28
2023-01-09T12:36:12.015Z,0.20
2023-01-09T12:38:44.953Z,0.20
2023-01-09T12:41:38.574Z,0.10
2023-01-09T12:44:34.698Z,0.20
2023-01-09T12:47:20.216Z,0.10
2023-01-09T12:49:59.670Z,0.28
2023-01-09T12:52:34.809Z,0.43
2023-01-09T12:55:07.554Z,0.28
2023-01-09T12:57:38.381Z,0.30
2023-01-09T13:00:18.968Z,0.28
2023-01-09T13:03:03.607Z,0.10
2023-01-09T13:05:45.352Z,0.20
2023-01-09T13:08:18.910Z,0.20
2023-01-09T13:10:50.280Z,0.20
2023-01-09T13:13:25.702Z,0.30
2023-01-09T13:15:57.920Z,0.30
2023-01-09T13:18:34.050Z,0.20
2023-01-09T13:21:03.133Z,0.20
2023-01-09T13:23:40.973Z,0.10
2023-01-09T13:26:13.064Z,0.30
2023-01-09T13:28:46.975Z,0.17
2023-01-09T13:31:32.518Z,0.10
2023-01-09T13:34:04.571Z,0.10
2023-01-09T13:36:39.054Z,0.20
2023-01-09T13:39:07.861Z,0.10
2023-01-09T13:42:05.420Z,0.35
2023-01-09T13:44:34.540Z,0.10
2023-01-09T13:47:04.282Z,0.20
2023-01-09T13:49:53.221Z,0.15
2023-01-09T13:52:37.012Z,0.28
2023-01-09T13:55:25.206Z,0.20
2023-01-09T13:58:22.639Z,0.10
2023-01-09T14:01:03.232Z,0.10
2023-01-09T14:03:34.477Z,0.25
2023-01-09T14:06:25.099Z,0.43
2023-01-09T14:09:14.416Z,0.10
2023-01-09T14:11:42.765Z,0.22
2023-01-09T14:14:29.453Z,0.20
2023-01-09T14:16:59.746Z,0.20
2023-01-09T14:19:34.829Z,0.30
2023-01-09T14:22:05.312Z,0.20
2023-01-09T14:24:40.513Z,0.13
2023-01-09T14:27:44.618Z,0.20
2023-01-09T14:30:31.527Z,0.20
2023-01-09T14:33:02.137Z,0.20
2023-01-09T14:35:38.343Z,0.20
2023-01-09T14:38:27.439Z,0.10
2023-01-09T14:41:00.854Z,0.20
2023-01-09T14:43:46.308Z,0.10
2023-01-09T14:46:18.757Z,0.20
2023-01-09T14:49:00.175Z,0.13
2023-01-09T14:51:33.788Z,0.20
2023-01-09T14:54:22.431Z,0.20
2023-01-09T14:56:50.960Z,0.20
2023-01-09T14:59:19.014Z,0.30
2023-01-09T15:01:51.799Z,0.30
2023-01-09T15:04:26.946Z,0.10
2023-01-09T15:06:55.230Z,0.30
2023-01-09T15:09:28.117Z,0.40
2023-01-09T15:12:01.750Z,0.57
2023-01-09T15:14:34.478Z,0.30
2023-01-09T15:17:04.707Z,0.30
2023-01-09T15:19:33.448Z,0.13
2023-01-09T15:22:04.725Z,0.40
2023-01-09T15:24:35.588Z,0.40
2023-01-09T15:27:05.691Z,0.30
2023-01-09T15:29:33.993Z,0.50
2023-01-09T15:32:06.687Z,0.30
2023-01-09T15:34:35.561Z,0.30
2023-01-09T15:37:03.900Z,0.68
2023-01-09T15:39:39.193Z,0.40
2023-01-09T15:42:39.665Z,0.45
2023-01-09T15:45:15.270Z,0.20
2023-01-09T15:47:43.495Z,0.32
2023-01-09T15:50:14.723Z,0.50
2023-01-09T15:52:43.550Z,0.15
2023-01-09T15:55:26.498Z,0.20
2023-01-09T15:57:54.734Z,0.30
2023-01-09T16:00:35.848Z,0.30
2023-01-09T16:03:15.793Z,0.20
2023-01-09T16:05:46.137Z,0.47
2023-01-09T16:08:29.301Z,0.30
2023-01-09T16:11:02.562Z,0.40
2023-01-09T16:13:34.089Z,0.52
2023-01-09T16:16:03.855Z,0.40
2023-01-09T16:18:35.152Z,0.60
2023-01-09T16:21:22.547Z,0.30
2023-01-09T16:23:57.369Z,0.40
2023-01-09T16:26:28.810Z,0.40
2023-01-09T16:28:57.314Z,0.30
2023-01-09T16:31:28.923Z,0.40
2023-01-09T16:34:06.298Z,0.32
2023-01-09T16:36:35.964Z,0.47
2023-01-09T16:39:05.009Z,0.20
2023-01-09T16:41:51.794Z,0.30
2023-01-09T16:44:19.993Z,0.25
2023-01-09T16:46:48.089Z,0.25
2023-01-09T16:49:19.453Z,0.40
2023-01-09T16:51:48.511Z,1.08
2023-01-09T16:54:17.425Z,1.50
2023-01-09T16:56:50.040Z,0.80
2023-01-09T16:59:24.441Z,0.65
2023-01-09T17:01:53.113Z,0.70
2023-01-09T17:04:23.634Z,0.52
2023-01-09T17:06:52.416Z,0.70
2023-01-09T17:09:23.112Z,0.30
2023-01-09T17:11:53.688Z,0.30
2023-01-09T17:14:21.763Z,0.40
2023-01-09T17:16:49.926Z,0.55
2023-01-09T17:19:20.725Z,0.50
2023-01-09T17:21:48.888Z,0.40
2023-01-09T17:24:34.457Z,0.47
2023-01-09T17:27:22.167Z,0.40
2023-01-09T17:29:50.144Z,0.30
2023-01-09T17:32:19.558Z,0.45
2023-01-09T17:34:47.521Z,0.85
2023-01-09T17:37:16.664Z,0.88
2023-01-09T17:39:45.663Z,0.65
2023-01-09T17:42:15.018Z,0.52
2023-01-09T17:44:42.977Z,0.60
2023-01-09T17:47:15.744Z,0.50
2023-01-09T17:49:43.960Z,0.45
2023-01-09T17:52:12.273Z,0.40
2023-01-09T17:54:40.470Z,0.40
2023-01-09T17:57:10.348Z,0.60
2023-01-09T17:59:39.988Z,0.93
2023-01-09T18:02:17.224Z,0.82
2023-01-09T18:04:45.857Z,0.60
2023-01-09T18:07:16.401Z,0.65
2023-01-09T18:09:44.685Z,0.70
2023-01-09T18:12:12.875Z,0.77
2023-01-09T18:14:42.569Z,1.20
2023-01-09T18:17:13.804Z,0.82
2023-01-09T18:19:42.449Z,0.80
2023-01-09T18:22:10.428Z,1.00
2023-01-09T18:24:38.402Z,0.62
2023-01-09T18:27:06.731Z,0.70
2023-01-09T18:29:34.820Z,0.60
2023-01-09T18:32:04.302Z,1.08
2023-01-09T18:34:32.692Z,0.75
2023-01-09T18:37:00.889Z,1.17
2023-01-09T18:39:28.947Z,0.70
2023-01-09T18:41:57.318Z,0.68
2023-01-09T18:44:25.201Z,0.75
2023-01-09T18:46:53.214Z,0.80
2023-01-09T18:49:22.729Z,0.40
2023-01-09T18:51:50.672Z,0.62
2023-01-09T18:54:18.623Z,0.43
2023-01-09T18:56:47.034Z,0.60
2023-01-09T18:59:15.083Z,0.30
2023-01-09T19:01:43.309Z,0.70
2023-01-09T19:04:11.749Z,0.80
2023-01-09T19:06:41.167Z,0.80
2023-01-09T19:09:09.248Z,0.65
2023-01-09T19:11:37.628Z,0.77
2023-01-09T19:14:05.607Z,0.62
2023-01-09T19:16:33.671Z,0.70
2023-01-09T19:19:02.802Z,0.55
2023-01-09T19:21:30.851Z,0.88
2023-01-09T19:24:00.341Z,0.93
2023-01-09T19:26:30.952Z,0.55
2023-01-09T19:28:58.943Z,0.60
2023-01-09T19:31:28.602Z,0.60
2023-01-09T19:33:58.506Z,0.88
2023-01-09T19:36:26.998Z,0.60
2023-01-09T19:38:57.928Z,0.75
2023-01-09T19:41:28.071Z,0.65
2023-01-09T19:43:56.343Z,1.12
2023-01-09T19:46:26.594Z,0.85
2023-01-09T19:48:57.017Z,0.90
2023-01-09T19:51:25.527Z,0.90
2023-01-09T19:53:55.367Z,0.75
2023-01-09T19:56:26.310Z,1.00
2023-01-09T19:58:57.372Z,0.60
2023-01-09T20:01:27.456Z,1.00
2023-01-09T20:03:57.500Z,0.93
2023-01-09T20:06:26.559Z,0.70
2023-01-09T20:08:56.555Z,0.70
2023-01-09T20:11:26.387Z,0.70
2023-01-09T20:13:56.493Z,0.80
2023-01-09T20:16:28.236Z,1.05
2023-01-09T20:18:57.810Z,1.05
2023-01-09T20:21:27.381Z,1.05
2023-01-09T20:23:56.999Z,0.95
2023-01-09T20:26:25.990Z,0.80
2023-01-09T20:28:56.153Z,0.70
2023-01-09T20:31:28.022Z,0.90
2023-01-09T20:33:56.759Z,1.08
2023-01-09T20:36:27.556Z,0.60
2023-01-09T20:38:55.977Z,0.75
2023-01-09T20:41:25.795Z,0.60
2023-01-09T20:43:57.359Z,0.70
2023-01-09T20:46:27.186Z,0.45
2023-01-09T20:48:56.679Z,0.77
2023-01-09T20:51:24.890Z,0.52
2023-01-09T20:53:55.733Z,0.73
2023-01-09T20:56:24.817Z,0.65
2023-01-09T20:58:55.384Z,0.70
2023-01-09T21:01:23.842Z,0.50
2023-01-09T21:03:52.256Z,1.08
2023-01-09T21:06:22.045Z,0.75
2023-01-09T21:08:52.860Z,0.50
2023-01-09T21:11:22.187Z,0.70
2023-01-09T21:13:50.853Z,0.65
2023-01-09T21:16:24.085Z,0.30
2023-01-09T21:18:54.724Z,0.70
2023-01-09T21:21:24.911Z,0.40
2023-01-09T21:23:54.779Z,0.60
2023-01-09T21:26:26.606Z,0.50
2023-01-09T21:28:56.842Z,0.35
2023-01-09T21:31:30.780Z,0.70
2023-01-09T21:33:59.064Z,0.60
2023-01-09T21:36:27.511Z,0.55
2023-01-09T21:38:58.687Z,0.85
2023-01-09T21:41:45.382Z,0.40
2023-01-09T21:44:28.124Z,0.77
2023-01-09T21:46:58.520Z,0.40
2023-01-09T21:49:31.117Z,0.60
2023-01-09T21:51:59.624Z,0.50
2023-01-09T21:54:27.726Z,0.57
2023-01-09T21:56:55.803Z,0.60
2023-01-09T21:59:24.021Z,0.57
2023-01-09T22:01:52.545Z,0.50
2023-01-09T22:04:24.779Z,0.50
2023-01-09T22:06:53.558Z,0.50
2023-01-09T22:09:22.566Z,0.68
2023-01-09T22:11:50.679Z,0.50
2023-01-09T22:14:20.439Z,0.50
2023-01-09T22:16:49.071Z,0.80
2023-01-09T22:19:18.322Z,0.70
2023-01-09T22:21:48.267Z,0.70
2023-01-09T22:24:18.461Z,0.68
2023-01-09T22:26:47.155Z,0.73
2023-01-09T22:29:16.047Z,0.85
2023-01-09T22:31:44.403Z,0.60
2023-01-09T22:34:16.631Z,0.60
2023-01-09T22:36:47.396Z,0.90
2023-01-09T22:39:17.732Z,0.60
2023-01-09T22:41:46.886Z,0.90
2023-01-09T22:44:15.124Z,0.85
2023-01-09T22:46:43.075Z,0.60
2023-01-09T22:49:12.268Z,0.52
2023-01-09T22:51:40.599Z,0.98
2023-01-09T22:54:09.918Z,0.85
2023-01-09T22:56:38.215Z,0.93
2023-01-09T22:59:06.456Z,0.73
2023-01-09T23:01:34.777Z,1.05
2023-01-09T23:04:04.670Z,0.73
2023-01-09T23:06:32.738Z,0.82
2023-01-09T23:09:00.749Z,0.80
2023-01-09T23:11:50.224Z,0.98
2023-01-09T23:14:18.723Z,1.20
2023-01-09T23:16:47.303Z,0.88
2023-01-09T23:19:15.777Z,0.93
2023-01-09T23:21:44.164Z,0.90
2023-01-09T23:24:14.589Z,1.30
2023-01-09T23:26:44.834Z,0.95
2023-01-09T23:29:13.917Z,1.33
2023-01-09T23:31:42.219Z,0.80
2023-01-09T23:34:13.797Z,0.88
2023-01-09T23:36:42.539Z,0.85
2023-01-09T23:39:10.697Z,1.15
2023-01-09T23:41:56.339Z,0.60
2023-01-09T23:44:26.415Z,0.88
2023-01-09T23:46:56.742Z,0.95
2023-01-09T23:49:25.047Z,1.05
2023-01-09T23:51:53.118Z,1.20
2023-01-09T23:54:21.201Z,0.80
2023-01-09T23:56:49.601Z,0.80
2023-01-09T23:59:18.046Z,0.88
